sensor_id;sensor_type;location;lat;lon;timestamp;temperature;humidity
25352;DHT22;13304;48.464;8.712;2023-07-02T00:01:13;20.80;84.10
25352;DHT22;13304;48.464;8.712;2023-07-02T00:03:39;20.80;84.00
25352;DHT22;13304;48.464;8.712;2023-07-02T00:06:05;20.80;83.90
25352;DHT22;13304;48.464;8.712;2023-07-02T00:08:34;20.90;83.90
25352;DHT22;13304;48.464;8.712;2023-07-02T00:10:59;20.80;83.70
25352;DHT22;13304;48.464;8.712;2023-07-02T00:13:25;20.90;83.90
25352;DHT22;13304;48.464;8.712;2023-07-02T00:15:51;20.90;83.70
25352;DHT22;13304;48.464;8.712;2023-07-02T00:18:19;20.90;83.60
25352;DHT22;13304;48.464;8.712;2023-07-02T00:20:44;20.90;83.60
25352;DHT22;13304;48.464;8.712;2023-07-02T00:23:10;20.90;84.70
25352;DHT22;13304;48.464;8.712;2023-07-02T00:25:36;20.90;84.00
25352;DHT22;13304;48.464;8.712;2023-07-02T00:28:03;20.90;83.80
25352;DHT22;13304;48.464;8.712;2023-07-02T00:30:29;20.90;83.80
25352;DHT22;13304;48.464;8.712;2023-07-02T00:32:55;20.90;83.80
25352;DHT22;13304;48.464;8.712;2023-07-02T00:35:21;20.90;84.00
25352;DHT22;13304;48.464;8.712;2023-07-02T00:37:48;20.90;84.20
25352;DHT22;13304;48.464;8.712;2023-07-02T00:40:14;20.90;84.20
25352;DHT22;13304;48.464;8.712;2023-07-02T00:42:39;20.80;84.40
25352;DHT22;13304;48.464;8.712;2023-07-02T00:45:06;20.80;84.70
25352;DHT22;13304;48.464;8.712;2023-07-02T00:47:35;20.80;84.90
25352;DHT22;13304;48.464;8.712;2023-07-02T00:50:02;20.80;84.90
25352;DHT22;13304;48.464;8.712;2023-07-02T00:52:28;20.80;85.00
25352;DHT22;13304;48.464;8.712;2023-07-02T00:54:54;20.80;85.10
25352;DHT22;13304;48.464;8.712;2023-07-02T00:57:20;20.70;85.00
25352;DHT22;13304;48.464;8.712;2023-07-02T00:59:46;20.70;85.00
25352;DHT22;13304;48.464;8.712;2023-07-02T01:02:11;20.70;85.00
25352;DHT22;13304;48.464;8.712;2023-07-02T01:04:39;20.70;85.10
25352;DHT22;13304;48.464;8.712;2023-07-02T01:07:06;20.70;85.30
25352;DHT22;13304;48.464;8.712;2023-07-02T01:09:36;20.70;85.40
25352;DHT22;13304;48.464;8.712;2023-07-02T01:12:04;20.60;85.60
25352;DHT22;13304;48.464;8.712;2023-07-02T01:14:38;20.60;85.80
25352;DHT22;13304;48.464;8.712;2023-07-02T01:17:06;20.50;85.70
25352;DHT22;13304;48.464;8.712;2023-07-02T01:19:55;20.60;85.80
25352;DHT22;13304;48.464;8.712;2023-07-02T01:22:26;20.50;85.70
25352;DHT22;13304;48.464;8.712;2023-07-02T01:24:53;20.50;85.70
25352;DHT22;13304;48.464;8.712;2023-07-02T01:27:20;20.50;85.70
25352;DHT22;13304;48.464;8.712;2023-07-02T01:29:46;20.50;85.80
25352;DHT22;13304;48.464;8.712;2023-07-02T01:32:13;20.40;85.80
25352;DHT22;13304;48.464;8.712;2023-07-02T01:34:39;20.40;85.90
25352;DHT22;13304;48.464;8.712;2023-07-02T01:37:05;20.40;86.00
25352;DHT22;13304;48.464;8.712;2023-07-02T01:39:31;20.40;86.30
25352;DHT22;13304;48.464;8.712;2023-07-02T01:42:11;20.40;86.40
25352;DHT22;13304;48.464;8.712;2023-07-02T01:44:38;20.30;86.50
25352;DHT22;13304;48.464;8.712;2023-07-02T01:47:04;20.40;86.80
25352;DHT22;13304;48.464;8.712;2023-07-02T01:49:30;20.40;86.80
25352;DHT22;13304;48.464;8.712;2023-07-02T01:51:57;20.40;86.80
25352;DHT22;13304;48.464;8.712;2023-07-02T01:54:24;20.30;86.70
25352;DHT22;13304;48.464;8.712;2023-07-02T01:56:50;20.30;86.80
25352;DHT22;13304;48.464;8.712;2023-07-02T01:59:16;20.30;86.70
25352;DHT22;13304;48.464;8.712;2023-07-02T02:01:44;20.30;86.60
25352;DHT22;13304;48.464;8.712;2023-07-02T02:04:11;20.30;86.60
25352;DHT22;13304;48.464;8.712;2023-07-02T02:06:37;20.30;86.60
25352;DHT22;13304;48.464;8.712;2023-07-02T02:09:04;20.30;86.80
25352;DHT22;13304;48.464;8.712;2023-07-02T02:11:31;20.30;87.00
25352;DHT22;13304;48.464;8.712;2023-07-02T02:13:59;20.30;87.10
25352;DHT22;13304;48.464;8.712;2023-07-02T02:16:28;20.20;87.20
25352;DHT22;13304;48.464;8.712;2023-07-02T02:18:54;20.20;87.40
25352;DHT22;13304;48.464;8.712;2023-07-02T02:21:21;20.20;87.40
25352;DHT22;13304;48.464;8.712;2023-07-02T02:23:47;20.20;87.60
25352;DHT22;13304;48.464;8.712;2023-07-02T02:26:13;20.20;87.60
25352;DHT22;13304;48.464;8.712;2023-07-02T02:28:40;20.20;87.70
25352;DHT22;13304;48.464;8.712;2023-07-02T02:31:06;20.20;87.80
25352;DHT22;13304;48.464;8.712;2023-07-02T02:33:32;20.20;87.90
25352;DHT22;13304;48.464;8.712;2023-07-02T02:35:58;20.20;88.00
25352;DHT22;13304;48.464;8.712;2023-07-02T02:38:24;20.20;88.00
25352;DHT22;13304;48.464;8.712;2023-07-02T02:40:49;20.20;88.00
25352;DHT22;13304;48.464;8.712;2023-07-02T02:43:16;20.20;87.90
25352;DHT22;13304;48.464;8.712;2023-07-02T02:45:45;20.30;87.90
25352;DHT22;13304;48.464;8.712;2023-07-02T02:48:10;20.20;87.70
25352;DHT22;13304;48.464;8.712;2023-07-02T02:50:37;20.30;87.70
25352;DHT22;13304;48.464;8.712;2023-07-02T02:53:07;20.30;87.80
25352;DHT22;13304;48.464;8.712;2023-07-02T02:55:33;20.20;87.60
25352;DHT22;13304;48.464;8.712;2023-07-02T02:57:59;20.30;87.50
25352;DHT22;13304;48.464;8.712;2023-07-02T03:00:25;20.20;87.20
25352;DHT22;13304;48.464;8.712;2023-07-02T03:02:50;20.20;86.80
25352;DHT22;13304;48.464;8.712;2023-07-02T03:05:16;20.20;86.10
25352;DHT22;13304;48.464;8.712;2023-07-02T03:07:42;20.10;84.90
25352;DHT22;13304;48.464;8.712;2023-07-02T03:10:08;20.10;84.30
25352;DHT22;13304;48.464;8.712;2023-07-02T03:12:36;20.00;84.00
25352;DHT22;13304;48.464;8.712;2023-07-02T03:15:02;20.00;84.00
25352;DHT22;13304;48.464;8.712;2023-07-02T03:17:28;20.00;84.10
25352;DHT22;13304;48.464;8.712;2023-07-02T03:19:53;19.90;83.90
25352;DHT22;13304;48.464;8.712;2023-07-02T03:22:19;19.90;83.70
25352;DHT22;13304;48.464;8.712;2023-07-02T03:24:45;19.90;84.00
25352;DHT22;13304;48.464;8.712;2023-07-02T03:27:10;19.80;84.00
25352;DHT22;13304;48.464;8.712;2023-07-02T03:29:38;19.80;84.40
25352;DHT22;13304;48.464;8.712;2023-07-02T03:32:04;19.70;84.50
25352;DHT22;13304;48.464;8.712;2023-07-02T03:34:30;19.60;84.70
25352;DHT22;13304;48.464;8.712;2023-07-02T03:36:56;19.60;85.00
25352;DHT22;13304;48.464;8.712;2023-07-02T03:39:22;19.60;85.30
25352;DHT22;13304;48.464;8.712;2023-07-02T03:41:47;19.50;85.30
25352;DHT22;13304;48.464;8.712;2023-07-02T03:44:13;19.40;85.40
25352;DHT22;13304;48.464;8.712;2023-07-02T03:46:39;19.40;85.70
25352;DHT22;13304;48.464;8.712;2023-07-02T03:49:05;19.30;86.00
25352;DHT22;13304;48.464;8.712;2023-07-02T03:51:33;19.30;86.10
25352;DHT22;13304;48.464;8.712;2023-07-02T03:53:59;19.30;86.50
25352;DHT22;13304;48.464;8.712;2023-07-02T03:56:25;19.30;86.70
25352;DHT22;13304;48.464;8.712;2023-07-02T03:58:52;19.20;86.90
25352;DHT22;13304;48.464;8.712;2023-07-02T04:01:18;19.20;87.10
25352;DHT22;13304;48.464;8.712;2023-07-02T04:03:51;19.30;87.40
25352;DHT22;13304;48.464;8.712;2023-07-02T04:06:17;19.20;87.50
25352;DHT22;13304;48.464;8.712;2023-07-02T04:08:44;19.20;87.50
25352;DHT22;13304;48.464;8.712;2023-07-02T04:11:10;19.20;87.60
25352;DHT22;13304;48.464;8.712;2023-07-02T04:13:37;19.20;87.70
25352;DHT22;13304;48.464;8.712;2023-07-02T04:16:02;19.20;88.00
25352;DHT22;13304;48.464;8.712;2023-07-02T04:18:31;19.20;88.40
25352;DHT22;13304;48.464;8.712;2023-07-02T04:20:57;19.20;88.60
25352;DHT22;13304;48.464;8.712;2023-07-02T04:23:24;19.20;88.80
25352;DHT22;13304;48.464;8.712;2023-07-02T04:25:50;19.20;88.90
25352;DHT22;13304;48.464;8.712;2023-07-02T04:28:16;19.20;88.90
25352;DHT22;13304;48.464;8.712;2023-07-02T04:30:41;19.20;88.80
25352;DHT22;13304;48.464;8.712;2023-07-02T04:33:08;19.20;88.90
25352;DHT22;13304;48.464;8.712;2023-07-02T04:35:34;19.20;88.90
25352;DHT22;13304;48.464;8.712;2023-07-02T04:38:00;19.20;88.80
25352;DHT22;13304;48.464;8.712;2023-07-02T04:40:26;19.20;88.80
25352;DHT22;13304;48.464;8.712;2023-07-02T04:42:52;19.20;88.60
25352;DHT22;13304;48.464;8.712;2023-07-02T04:45:24;19.30;88.70
25352;DHT22;13304;48.464;8.712;2023-07-02T04:47:52;19.20;88.50
25352;DHT22;13304;48.464;8.712;2023-07-02T04:50:18;19.20;88.50
25352;DHT22;13304;48.464;8.712;2023-07-02T04:52:44;19.30;88.70
25352;DHT22;13304;48.464;8.712;2023-07-02T04:55:10;19.30;88.80
25352;DHT22;13304;48.464;8.712;2023-07-02T04:57:37;19.30;88.90
25352;DHT22;13304;48.464;8.712;2023-07-02T05:00:03;19.30;88.80
25352;DHT22;13304;48.464;8.712;2023-07-02T05:02:31;19.30;88.50
25352;DHT22;13304;48.464;8.712;2023-07-02T05:04:57;19.30;88.50
25352;DHT22;13304;48.464;8.712;2023-07-02T05:07:25;19.30;88.50
25352;DHT22;13304;48.464;8.712;2023-07-02T05:09:50;19.30;88.60
25352;DHT22;13304;48.464;8.712;2023-07-02T05:12:18;19.30;88.70
25352;DHT22;13304;48.464;8.712;2023-07-02T05:14:44;19.30;88.70
25352;DHT22;13304;48.464;8.712;2023-07-02T05:17:11;19.30;88.70
25352;DHT22;13304;48.464;8.712;2023-07-02T05:19:36;19.30;88.40
25352;DHT22;13304;48.464;8.712;2023-07-02T05:22:02;19.40;88.40
25352;DHT22;13304;48.464;8.712;2023-07-02T05:24:28;19.40;88.50
25352;DHT22;13304;48.464;8.712;2023-07-02T05:26:53;19.40;88.50
25352;DHT22;13304;48.464;8.712;2023-07-02T05:29:19;19.40;88.50
25352;DHT22;13304;48.464;8.712;2023-07-02T05:31:45;19.50;88.10
25352;DHT22;13304;48.464;8.712;2023-07-02T05:34:11;19.50;88.20
25352;DHT22;13304;48.464;8.712;2023-07-02T05:36:37;19.50;88.20
25352;DHT22;13304;48.464;8.712;2023-07-02T05:39:05;19.50;88.00
25352;DHT22;13304;48.464;8.712;2023-07-02T05:41:31;19.50;87.60
25352;DHT22;13304;48.464;8.712;2023-07-02T05:44:00;19.50;88.10
25352;DHT22;13304;48.464;8.712;2023-07-02T05:46:26;19.50;86.90
25352;DHT22;13304;48.464;8.712;2023-07-02T05:48:51;19.60;86.00
25352;DHT22;13304;48.464;8.712;2023-07-02T05:51:21;19.60;86.40
25352;DHT22;13304;48.464;8.712;2023-07-02T05:53:50;19.50;85.80
25352;DHT22;13304;48.464;8.712;2023-07-02T05:56:16;19.60;85.60
25352;DHT22;13304;48.464;8.712;2023-07-02T05:58:42;19.50;85.70
25352;DHT22;13304;48.464;8.712;2023-07-02T06:01:08;19.60;85.30
25352;DHT22;13304;48.464;8.712;2023-07-02T06:03:34;19.60;85.30
25352;DHT22;13304;48.464;8.712;2023-07-02T06:05:59;19.60;85.10
25352;DHT22;13304;48.464;8.712;2023-07-02T06:08:25;19.60;84.90
25352;DHT22;13304;48.464;8.712;2023-07-02T06:10:51;19.60;85.20
25352;DHT22;13304;48.464;8.712;2023-07-02T06:13:17;19.60;85.40
25352;DHT22;13304;48.464;8.712;2023-07-02T06:15:43;19.60;85.00
25352;DHT22;13304;48.464;8.712;2023-07-02T06:18:09;19.60;85.20
25352;DHT22;13304;48.464;8.712;2023-07-02T06:20:35;19.60;85.20
25352;DHT22;13304;48.464;8.712;2023-07-02T06:23:00;19.70;85.40
25352;DHT22;13304;48.464;8.712;2023-07-02T06:25:26;19.70;85.70
25352;DHT22;13304;48.464;8.712;2023-07-02T06:27:57;19.70;85.40
25352;DHT22;13304;48.464;8.712;2023-07-02T06:30:24;19.80;85.10
25352;DHT22;13304;48.464;8.712;2023-07-02T06:32:52;19.80;85.20
25352;DHT22;13304;48.464;8.712;2023-07-02T06:35:18;19.90;85.00
25352;DHT22;13304;48.464;8.712;2023-07-02T06:37:47;19.90;83.80
25352;DHT22;13304;48.464;8.712;2023-07-02T06:40:13;19.90;83.70
25352;DHT22;13304;48.464;8.712;2023-07-02T06:42:38;20.00;84.10
25352;DHT22;13304;48.464;8.712;2023-07-02T06:45:06;20.00;84.10
25352;DHT22;13304;48.464;8.712;2023-07-02T06:47:32;20.00;82.60
25352;DHT22;13304;48.464;8.712;2023-07-02T06:49:58;20.00;81.70
25352;DHT22;13304;48.464;8.712;2023-07-02T06:52:24;20.00;81.20
25352;DHT22;13304;48.464;8.712;2023-07-02T06:54:50;20.00;81.40
25352;DHT22;13304;48.464;8.712;2023-07-02T06:57:16;20.00;81.80
25352;DHT22;13304;48.464;8.712;2023-07-02T06:59:41;20.00;81.60
25352;DHT22;13304;48.464;8.712;2023-07-02T07:02:07;20.10;82.10
25352;DHT22;13304;48.464;8.712;2023-07-02T07:04:33;20.10;81.90
25352;DHT22;13304;48.464;8.712;2023-07-02T07:07:00;20.10;82.00
25352;DHT22;13304;48.464;8.712;2023-07-02T07:09:28;20.20;82.00
25352;DHT22;13304;48.464;8.712;2023-07-02T07:11:54;20.20;82.00
25352;DHT22;13304;48.464;8.712;2023-07-02T07:14:20;20.20;81.80
25352;DHT22;13304;48.464;8.712;2023-07-02T07:16:45;20.20;82.00
25352;DHT22;13304;48.464;8.712;2023-07-02T07:19:11;20.30;82.00
25352;DHT22;13304;48.464;8.712;2023-07-02T07:21:37;20.30;82.10
25352;DHT22;13304;48.464;8.712;2023-07-02T07:24:02;20.40;81.70
25352;DHT22;13304;48.464;8.712;2023-07-02T07:26:28;20.40;80.80
25352;DHT22;13304;48.464;8.712;2023-07-02T07:28:54;20.50;79.60
25352;DHT22;13304;48.464;8.712;2023-07-02T07:31:21;20.50;79.60
25352;DHT22;13304;48.464;8.712;2023-07-02T07:33:47;20.50;79.90
25352;DHT22;13304;48.464;8.712;2023-07-02T07:36:12;20.60;80.00
25352;DHT22;13304;48.464;8.712;2023-07-02T07:38:43;20.70;79.50
25352;DHT22;13304;48.464;8.712;2023-07-02T07:41:09;20.70;77.50
25352;DHT22;13304;48.464;8.712;2023-07-02T07:43:34;20.80;78.70
25352;DHT22;13304;48.464;8.712;2023-07-02T07:46:00;20.90;78.40
25352;DHT22;13304;48.464;8.712;2023-07-02T07:48:26;20.90;78.30
25352;DHT22;13304;48.464;8.712;2023-07-02T07:50:54;20.90;77.10
25352;DHT22;13304;48.464;8.712;2023-07-02T07:53:19;20.90;77.10
25352;DHT22;13304;48.464;8.712;2023-07-02T07:55:47;21.00;77.10
25352;DHT22;13304;48.464;8.712;2023-07-02T07:58:13;21.00;76.20
25352;DHT22;13304;48.464;8.712;2023-07-02T08:00:39;21.10;76.20
25352;DHT22;13304;48.464;8.712;2023-07-02T08:03:05;21.10;75.00
25352;DHT22;13304;48.464;8.712;2023-07-02T08:05:30;21.10;74.60
25352;DHT22;13304;48.464;8.712;2023-07-02T08:07:56;21.10;75.50
25352;DHT22;13304;48.464;8.712;2023-07-02T08:10:23;21.10;74.50
25352;DHT22;13304;48.464;8.712;2023-07-02T08:12:50;21.10;73.70
25352;DHT22;13304;48.464;8.712;2023-07-02T08:15:17;21.00;73.60
25352;DHT22;13304;48.464;8.712;2023-07-02T08:17:43;21.00;74.00
25352;DHT22;13304;48.464;8.712;2023-07-02T08:20:09;21.00;73.70
25352;DHT22;13304;48.464;8.712;2023-07-02T08:22:39;21.00;74.20
25352;DHT22;13304;48.464;8.712;2023-07-02T08:25:06;21.00;74.10
25352;DHT22;13304;48.464;8.712;2023-07-02T08:27:32;21.00;74.70
25352;DHT22;13304;48.464;8.712;2023-07-02T08:29:58;21.00;74.40
25352;DHT22;13304;48.464;8.712;2023-07-02T08:32:23;21.00;74.60
25352;DHT22;13304;48.464;8.712;2023-07-02T08:34:49;21.00;74.10
25352;DHT22;13304;48.464;8.712;2023-07-02T08:37:19;21.10;73.90
25352;DHT22;13304;48.464;8.712;2023-07-02T08:39:48;21.00;72.90
25352;DHT22;13304;48.464;8.712;2023-07-02T08:42:14;21.00;73.80
25352;DHT22;13304;48.464;8.712;2023-07-02T08:44:40;21.00;73.80
25352;DHT22;13304;48.464;8.712;2023-07-02T08:47:06;21.00;72.20
25352;DHT22;13304;48.464;8.712;2023-07-02T08:49:32;21.00;71.00
25352;DHT22;13304;48.464;8.712;2023-07-02T08:51:58;21.00;70.70
25352;DHT22;13304;48.464;8.712;2023-07-02T08:54:24;21.10;69.50
25352;DHT22;13304;48.464;8.712;2023-07-02T08:56:50;21.10;68.40
25352;DHT22;13304;48.464;8.712;2023-07-02T08:59:16;21.10;68.00
25352;DHT22;13304;48.464;8.712;2023-07-02T09:01:48;21.20;68.00
25352;DHT22;13304;48.464;8.712;2023-07-02T09:04:19;21.20;66.50
25352;DHT22;13304;48.464;8.712;2023-07-02T09:06:51;21.30;66.30
25352;DHT22;13304;48.464;8.712;2023-07-02T09:09:30;21.30;67.40
25352;DHT22;13304;48.464;8.712;2023-07-02T09:11:58;21.30;66.30
25352;DHT22;13304;48.464;8.712;2023-07-02T09:14:29;21.40;65.90
25352;DHT22;13304;48.464;8.712;2023-07-02T09:19:28;21.40;65.00
25352;DHT22;13304;48.464;8.712;2023-07-02T09:21:57;21.50;67.10
25352;DHT22;13304;48.464;8.712;2023-07-02T09:24:29;21.60;64.40
25352;DHT22;13304;48.464;8.712;2023-07-02T09:26:59;21.60;65.60
25352;DHT22;13304;48.464;8.712;2023-07-02T09:29:31;21.60;63.70
25352;DHT22;13304;48.464;8.712;2023-07-02T09:31:59;21.70;64.70
25352;DHT22;13304;48.464;8.712;2023-07-02T09:34:34;21.70;64.90
25352;DHT22;13304;48.464;8.712;2023-07-02T09:37:01;21.70;64.00
25352;DHT22;13304;48.464;8.712;2023-07-02T09:39:29;21.80;64.70
25352;DHT22;13304;48.464;8.712;2023-07-02T09:41:56;21.90;63.60
25352;DHT22;13304;48.464;8.712;2023-07-02T09:44:30;21.90;62.90
25352;DHT22;13304;48.464;8.712;2023-07-02T09:47:04;22.00;63.80
25352;DHT22;13304;48.464;8.712;2023-07-02T09:54:30;22.10;61.50
25352;DHT22;13304;48.464;8.712;2023-07-02T09:56:59;22.20;61.20
25352;DHT22;13304;48.464;8.712;2023-07-02T09:59:25;22.30;61.30
25352;DHT22;13304;48.464;8.712;2023-07-02T10:01:52;22.30;60.10
25352;DHT22;13304;48.464;8.712;2023-07-02T10:04:19;22.40;60.80
25352;DHT22;13304;48.464;8.712;2023-07-02T10:06:49;22.40;60.10
25352;DHT22;13304;48.464;8.712;2023-07-02T10:09:17;22.40;59.30
25352;DHT22;13304;48.464;8.712;2023-07-02T10:11:43;22.50;59.60
25352;DHT22;13304;48.464;8.712;2023-07-02T10:14:09;22.50;59.60
25352;DHT22;13304;48.464;8.712;2023-07-02T10:16:48;22.60;60.00
25352;DHT22;13304;48.464;8.712;2023-07-02T10:19:14;22.60;59.00
25352;DHT22;13304;48.464;8.712;2023-07-02T10:21:40;22.70;60.30
25352;DHT22;13304;48.464;8.712;2023-07-02T10:24:17;22.80;60.20
25352;DHT22;13304;48.464;8.712;2023-07-02T10:26:58;22.80;60.00
25352;DHT22;13304;48.464;8.712;2023-07-02T10:29:25;22.80;59.10
25352;DHT22;13304;48.464;8.712;2023-07-02T10:31:51;22.90;59.60
25352;DHT22;13304;48.464;8.712;2023-07-02T10:34:35;22.90;57.40
25352;DHT22;13304;48.464;8.712;2023-07-02T10:37:01;22.90;56.10
25352;DHT22;13304;48.464;8.712;2023-07-02T10:39:31;23.00;57.40
25352;DHT22;13304;48.464;8.712;2023-07-02T10:42:10;23.10;56.70
25352;DHT22;13304;48.464;8.712;2023-07-02T10:44:47;23.10;54.80
25352;DHT22;13304;48.464;8.712;2023-07-02T10:47:13;23.10;55.10
25352;DHT22;13304;48.464;8.712;2023-07-02T10:49:39;23.20;56.10
25352;DHT22;13304;48.464;8.712;2023-07-02T10:52:05;23.20;56.10
25352;DHT22;13304;48.464;8.712;2023-07-02T10:54:48;23.20;56.30
25352;DHT22;13304;48.464;8.712;2023-07-02T10:57:16;23.20;53.50
25352;DHT22;13304;48.464;8.712;2023-07-02T10:59:46;23.30;56.30
25352;DHT22;13304;48.464;8.712;2023-07-02T11:02:11;23.30;55.50
25352;DHT22;13304;48.464;8.712;2023-07-02T11:04:37;23.30;56.90
25352;DHT22;13304;48.464;8.712;2023-07-02T11:07:04;23.40;56.40
25352;DHT22;13304;48.464;8.712;2023-07-02T11:09:30;23.50;56.70
25352;DHT22;13304;48.464;8.712;2023-07-02T11:11:58;23.50;55.70
25352;DHT22;13304;48.464;8.712;2023-07-02T11:16:54;23.60;53.40
25352;DHT22;13304;48.464;8.712;2023-07-02T11:19:20;23.70;53.00
25352;DHT22;13304;48.464;8.712;2023-07-02T11:21:54;23.80;53.10
25352;DHT22;13304;48.464;8.712;2023-07-02T11:24:41;23.80;51.20
25352;DHT22;13304;48.464;8.712;2023-07-02T11:27:07;23.80;50.80
25352;DHT22;13304;48.464;8.712;2023-07-02T11:29:34;23.80;52.70
25352;DHT22;13304;48.464;8.712;2023-07-02T11:32:10;23.90;52.80
25352;DHT22;13304;48.464;8.712;2023-07-02T11:34:37;23.80;51.50
25352;DHT22;13304;48.464;8.712;2023-07-02T11:37:04;23.90;52.60
25352;DHT22;13304;48.464;8.712;2023-07-02T11:39:34;24.00;53.80
25352;DHT22;13304;48.464;8.712;2023-07-02T11:42:00;24.00;52.80
25352;DHT22;13304;48.464;8.712;2023-07-02T11:44:26;24.10;52.00
25352;DHT22;13304;48.464;8.712;2023-07-02T11:46:52;24.20;52.20
25352;DHT22;13304;48.464;8.712;2023-07-02T11:49:18;24.20;52.00
25352;DHT22;13304;48.464;8.712;2023-07-02T11:51:44;24.20;52.10
25352;DHT22;13304;48.464;8.712;2023-07-02T11:54:15;24.20;51.30
25352;DHT22;13304;48.464;8.712;2023-07-02T11:56:41;24.20;51.00
25352;DHT22;13304;48.464;8.712;2023-07-02T11:59:08;24.20;51.50
25352;DHT22;13304;48.464;8.712;2023-07-02T12:01:34;24.30;50.40
25352;DHT22;13304;48.464;8.712;2023-07-02T12:04:00;24.20;49.50
25352;DHT22;13304;48.464;8.712;2023-07-02T12:06:25;24.30;48.60
25352;DHT22;13304;48.464;8.712;2023-07-02T12:08:51;24.30;48.40
25352;DHT22;13304;48.464;8.712;2023-07-02T12:11:17;24.30;48.70
25352;DHT22;13304;48.464;8.712;2023-07-02T12:13:43;24.20;48.90
25352;DHT22;13304;48.464;8.712;2023-07-02T12:16:09;24.20;48.60
25352;DHT22;13304;48.464;8.712;2023-07-02T12:18:35;24.20;49.40
25352;DHT22;13304;48.464;8.712;2023-07-02T12:21:00;24.20;48.50
25352;DHT22;13304;48.464;8.712;2023-07-02T12:23:26;24.20;48.50
25352;DHT22;13304;48.464;8.712;2023-07-02T12:25:52;24.20;48.90
25352;DHT22;13304;48.464;8.712;2023-07-02T12:28:18;24.20;49.40
25352;DHT22;13304;48.464;8.712;2023-07-02T12:30:43;24.20;49.50
25352;DHT22;13304;48.464;8.712;2023-07-02T12:33:11;24.20;50.10
25352;DHT22;13304;48.464;8.712;2023-07-02T12:35:37;24.20;49.20
25352;DHT22;13304;48.464;8.712;2023-07-02T12:38:02;24.30;49.10
25352;DHT22;13304;48.464;8.712;2023-07-02T12:40:29;24.30;50.60
25352;DHT22;13304;48.464;8.712;2023-07-02T12:42:54;24.30;50.30
25352;DHT22;13304;48.464;8.712;2023-07-02T12:45:21;24.40;50.10
25352;DHT22;13304;48.464;8.712;2023-07-02T12:47:47;24.50;50.00
25352;DHT22;13304;48.464;8.712;2023-07-02T12:50:13;24.50;50.30
25352;DHT22;13304;48.464;8.712;2023-07-02T12:52:39;24.60;50.80
25352;DHT22;13304;48.464;8.712;2023-07-02T12:55:05;24.60;49.90
25352;DHT22;13304;48.464;8.712;2023-07-02T12:57:31;24.70;50.50
25352;DHT22;13304;48.464;8.712;2023-07-02T12:59:56;24.80;49.40
25352;DHT22;13304;48.464;8.712;2023-07-02T13:02:23;24.80;50.00
25352;DHT22;13304;48.464;8.712;2023-07-02T13:04:49;24.90;49.70
25352;DHT22;13304;48.464;8.712;2023-07-02T13:07:16;24.80;48.20
25352;DHT22;13304;48.464;8.712;2023-07-02T13:09:44;24.90;48.90
25352;DHT22;13304;48.464;8.712;2023-07-02T13:12:11;24.90;49.20
25352;DHT22;13304;48.464;8.712;2023-07-02T13:14:37;24.90;50.00
25352;DHT22;13304;48.464;8.712;2023-07-02T13:17:03;25.00;50.10
25352;DHT22;13304;48.464;8.712;2023-07-02T13:19:31;25.00;50.80
25352;DHT22;13304;48.464;8.712;2023-07-02T13:21:58;25.00;50.20
25352;DHT22;13304;48.464;8.712;2023-07-02T13:24:27;25.00;49.60
25352;DHT22;13304;48.464;8.712;2023-07-02T13:26:53;25.00;50.70
25352;DHT22;13304;48.464;8.712;2023-07-02T13:29:53;25.10;51.20
25352;DHT22;13304;48.464;8.712;2023-07-02T13:32:46;25.00;49.30
25352;DHT22;13304;48.464;8.712;2023-07-02T13:35:11;25.00;50.50
25352;DHT22;13304;48.464;8.712;2023-07-02T13:37:37;25.00;51.20
25352;DHT22;13304;48.464;8.712;2023-07-02T13:40:03;25.00;50.20
25352;DHT22;13304;48.464;8.712;2023-07-02T13:42:30;25.00;50.60
25352;DHT22;13304;48.464;8.712;2023-07-02T13:44:56;25.00;49.90
25352;DHT22;13304;48.464;8.712;2023-07-02T13:47:22;25.00;50.00
25352;DHT22;13304;48.464;8.712;2023-07-02T13:49:48;25.00;48.90
25352;DHT22;13304;48.464;8.712;2023-07-02T13:52:14;25.00;48.50
25352;DHT22;13304;48.464;8.712;2023-07-02T13:54:39;25.00;49.50
25352;DHT22;13304;48.464;8.712;2023-07-02T13:57:05;25.00;49.20
25352;DHT22;13304;48.464;8.712;2023-07-02T13:59:31;25.10;48.90
25352;DHT22;13304;48.464;8.712;2023-07-02T14:01:57;25.10;48.70
25352;DHT22;13304;48.464;8.712;2023-07-02T14:04:22;25.10;48.40
25352;DHT22;13304;48.464;8.712;2023-07-02T14:06:48;25.20;48.70
25352;DHT22;13304;48.464;8.712;2023-07-02T14:09:14;25.20;48.80
25352;DHT22;13304;48.464;8.712;2023-07-02T14:11:41;25.30;49.20
25352;DHT22;13304;48.464;8.712;2023-07-02T14:14:08;25.30;50.40
25352;DHT22;13304;48.464;8.712;2023-07-02T14:16:34;25.30;49.70
25352;DHT22;13304;48.464;8.712;2023-07-02T14:19:00;25.40;50.30
25352;DHT22;13304;48.464;8.712;2023-07-02T14:21:26;25.40;50.80
25352;DHT22;13304;48.464;8.712;2023-07-02T14:23:52;25.50;49.10
25352;DHT22;13304;48.464;8.712;2023-07-02T14:26:18;25.40;49.40
25352;DHT22;13304;48.464;8.712;2023-07-02T14:28:43;25.50;49.80
25352;DHT22;13304;48.464;8.712;2023-07-02T14:31:09;25.50;50.90
25352;DHT22;13304;48.464;8.712;2023-07-02T14:33:36;25.50;50.10
25352;DHT22;13304;48.464;8.712;2023-07-02T14:36:03;25.50;49.80
25352;DHT22;13304;48.464;8.712;2023-07-02T14:38:30;25.60;48.40
25352;DHT22;13304;48.464;8.712;2023-07-02T14:40:56;25.60;48.90
25352;DHT22;13304;48.464;8.712;2023-07-02T14:43:24;25.60;48.90
25352;DHT22;13304;48.464;8.712;2023-07-02T14:45:53;25.70;49.10
25352;DHT22;13304;48.464;8.712;2023-07-02T14:48:19;25.80;49.20
25352;DHT22;13304;48.464;8.712;2023-07-02T14:50:49;25.90;48.40
25352;DHT22;13304;48.464;8.712;2023-07-02T14:53:16;25.90;48.40
25352;DHT22;13304;48.464;8.712;2023-07-02T14:55:42;26.10;47.60
25352;DHT22;13304;48.464;8.712;2023-07-02T14:58:09;26.20;47.30
25352;DHT22;13304;48.464;8.712;2023-07-02T15:00:41;26.20;47.80
25352;DHT22;13304;48.464;8.712;2023-07-02T15:03:07;26.20;47.20
25352;DHT22;13304;48.464;8.712;2023-07-02T15:05:33;26.20;47.40
25352;DHT22;13304;48.464;8.712;2023-07-02T15:07:59;26.30;47.60
25352;DHT22;13304;48.464;8.712;2023-07-02T15:10:25;26.40;47.90
25352;DHT22;13304;48.464;8.712;2023-07-02T15:12:50;26.40;48.40
25352;DHT22;13304;48.464;8.712;2023-07-02T15:15:16;26.50;47.70
25352;DHT22;13304;48.464;8.712;2023-07-02T15:17:42;26.60;47.70
25352;DHT22;13304;48.464;8.712;2023-07-02T15:20:09;26.70;47.20
25352;DHT22;13304;48.464;8.712;2023-07-02T15:22:35;26.80;46.00
25352;DHT22;13304;48.464;8.712;2023-07-02T15:25:01;26.70;45.40
25352;DHT22;13304;48.464;8.712;2023-07-02T15:27:26;26.70;45.60
25352;DHT22;13304;48.464;8.712;2023-07-02T15:29:52;26.60;45.40
25352;DHT22;13304;48.464;8.712;2023-07-02T15:32:18;26.50;46.00
25352;DHT22;13304;48.464;8.712;2023-07-02T15:34:44;26.40;46.10
25352;DHT22;13304;48.464;8.712;2023-07-02T15:37:09;26.40;46.20
25352;DHT22;13304;48.464;8.712;2023-07-02T15:39:35;26.30;46.20